sensor_id;sensor_type;location;lat;lon;timestamp;P1;durP1;ratioP1;P2;durP2;ratioP2
20970;SDS011;10644;48.834;10.088;2023-04-16T00:00:50;10.27;;;6.13;;
20970;SDS011;10644;48.834;10.088;2023-04-16T00:03:16;7.13;;;5.43;;
20970;SDS011;10644;48.834;10.088;2023-04-16T00:05:41;8.40;;;6.80;;
20970;SDS011;10644;48.834;10.088;2023-04-16T00:08:06;8.97;;;7.10;;
20970;SDS011;10644;48.834;10.088;2023-04-16T00:10:33;6.57;;;5.83;;
20970;SDS011;10644;48.834;10.088;2023-04-16T00:12:59;9.33;;;8.00;;
20970;SDS011;10644;48.834;10.088;2023-04-16T00:15:25;9.13;;;6.87;;
20970;SDS011;10644;48.834;10.088;2023-04-16T00:17:52;11.73;;;6.40;;
20970;SDS011;10644;48.834;10.088;2023-04-16T00:20:18;7.43;;;6.10;;
20970;SDS011;10644;48.834;10.088;2023-04-16T00:22:44;10.80;;;7.35;;
20970;SDS011;10644;48.834;10.088;2023-04-16T00:25:10;9.87;;;7.60;;
20970;SDS011;10644;48.834;10.088;2023-04-16T00:27:35;7.37;;;6.17;;
20970;SDS011;10644;48.834;10.088;2023-04-16T00:30:01;8.57;;;6.63;;
20970;SDS011;10644;48.834;10.088;2023-04-16T00:32:27;6.87;;;5.43;;
20970;SDS011;10644;48.834;10.088;2023-04-16T00:34:53;11.18;;;7.18;;
20970;SDS011;10644;48.834;10.088;2023-04-16T00:37:21;9.35;;;7.22;;
20970;SDS011;10644;48.834;10.088;2023-04-16T00:39:46;7.83;;;6.77;;
20970;SDS011;10644;48.834;10.088;2023-04-16T00:42:12;8.30;;;6.63;;
20970;SDS011;10644;48.834;10.088;2023-04-16T00:44:37;7.93;;;6.70;;
20970;SDS011;10644;48.834;10.088;2023-04-16T00:47:02;8.97;;;6.20;;
20970;SDS011;10644;48.834;10.088;2023-04-16T00:49:28;9.80;;;7.50;;
20970;SDS011;10644;48.834;10.088;2023-04-16T00:51:54;9.70;;;6.65;;
20970;SDS011;10644;48.834;10.088;2023-04-16T00:54:20;10.47;;;7.20;;
20970;SDS011;10644;48.834;10.088;2023-04-16T00:56:45;10.50;;;7.07;;
20970;SDS011;10644;48.834;10.088;2023-04-16T00:59:11;9.60;;;6.93;;
20970;SDS011;10644;48.834;10.088;2023-04-16T01:01:36;9.87;;;6.73;;
20970;SDS011;10644;48.834;10.088;2023-04-16T01:04:02;10.17;;;7.07;;
20970;SDS011;10644;48.834;10.088;2023-04-16T01:06:27;14.00;;;8.17;;
20970;SDS011;10644;48.834;10.088;2023-04-16T01:08:53;11.13;;;7.03;;
20970;SDS011;10644;48.834;10.088;2023-04-16T01:11:18;9.73;;;7.53;;
20970;SDS011;10644;48.834;10.088;2023-04-16T01:13:46;13.05;;;7.80;;
20970;SDS011;10644;48.834;10.088;2023-04-16T01:16:11;10.20;;;7.10;;
20970;SDS011;10644;48.834;10.088;2023-04-16T01:18:39;10.82;;;7.40;;
20970;SDS011;10644;48.834;10.088;2023-04-16T01:21:04;8.80;;;6.47;;
20970;SDS011;10644;48.834;10.088;2023-04-16T01:23:30;9.50;;;6.63;;
20970;SDS011;10644;48.834;10.088;2023-04-16T01:25:55;10.03;;;7.23;;
20970;SDS011;10644;48.834;10.088;2023-04-16T01:28:21;9.27;;;6.13;;
20970;SDS011;10644;48.834;10.088;2023-04-16T01:30:47;9.38;;;6.32;;
20970;SDS011;10644;48.834;10.088;2023-04-16T01:33:13;8.80;;;6.33;;
20970;SDS011;10644;48.834;10.088;2023-04-16T01:35:39;8.53;;;6.37;;
20970;SDS011;10644;48.834;10.088;2023-04-16T01:38:05;7.22;;;5.55;;
20970;SDS011;10644;48.834;10.088;2023-04-16T01:40:31;8.57;;;6.20;;
20970;SDS011;10644;48.834;10.088;2023-04-16T01:42:57;7.53;;;5.60;;
20970;SDS011;10644;48.834;10.088;2023-04-16T01:45:22;7.40;;;6.07;;
20970;SDS011;10644;48.834;10.088;2023-04-16T01:47:50;6.85;;;5.53;;
20970;SDS011;10644;48.834;10.088;2023-04-16T01:50:16;7.57;;;6.07;;
20970;SDS011;10644;48.834;10.088;2023-04-16T01:52:42;12.40;;;6.28;;
20970;SDS011;10644;48.834;10.088;2023-04-16T01:55:08;14.20;;;7.07;;
20970;SDS011;10644;48.834;10.088;2023-04-16T01:57:34;8.57;;;5.50;;
20970;SDS011;10644;48.834;10.088;2023-04-16T01:59:59;6.87;;;5.33;;
20970;SDS011;10644;48.834;10.088;2023-04-16T02:02:27;7.03;;;5.32;;
20970;SDS011;10644;48.834;10.088;2023-04-16T02:04:53;8.87;;;6.10;;
20970;SDS011;10644;48.834;10.088;2023-04-16T02:07:20;9.18;;;6.53;;
20970;SDS011;10644;48.834;10.088;2023-04-16T02:09:45;7.07;;;5.20;;
20970;SDS011;10644;48.834;10.088;2023-04-16T02:12:11;6.80;;;5.33;;
20970;SDS011;10644;48.834;10.088;2023-04-16T02:14:38;8.20;;;5.73;;
20970;SDS011;10644;48.834;10.088;2023-04-16T02:17:04;6.45;;;4.65;;
20970;SDS011;10644;48.834;10.088;2023-04-16T02:19:29;8.73;;;5.17;;
20970;SDS011;10644;48.834;10.088;2023-04-16T02:21:57;7.28;;;5.32;;
20970;SDS011;10644;48.834;10.088;2023-04-16T02:24:31;8.65;;;6.60;;
20970;SDS011;10644;48.834;10.088;2023-04-16T02:26:56;7.50;;;5.73;;
20970;SDS011;10644;48.834;10.088;2023-04-16T02:29:22;11.43;;;5.53;;
20970;SDS011;10644;48.834;10.088;2023-04-16T02:31:47;7.00;;;5.30;;
20970;SDS011;10644;48.834;10.088;2023-04-16T02:34:13;9.97;;;5.87;;
20970;SDS011;10644;48.834;10.088;2023-04-16T02:36:38;5.40;;;4.60;;
20970;SDS011;10644;48.834;10.088;2023-04-16T02:39:04;6.63;;;5.50;;
20970;SDS011;10644;48.834;10.088;2023-04-16T02:41:29;7.40;;;5.23;;
20970;SDS011;10644;48.834;10.088;2023-04-16T02:43:55;8.97;;;5.47;;
20970;SDS011;10644;48.834;10.088;2023-04-16T02:46:20;6.80;;;5.10;;
20970;SDS011;10644;48.834;10.088;2023-04-16T02:48:46;8.00;;;5.17;;
20970;SDS011;10644;48.834;10.088;2023-04-16T02:51:11;6.40;;;5.20;;
20970;SDS011;10644;48.834;10.088;2023-04-16T02:53:36;6.80;;;4.47;;
20970;SDS011;10644;48.834;10.088;2023-04-16T02:56:02;5.60;;;4.70;;
20970;SDS011;10644;48.834;10.088;2023-04-16T02:58:30;8.35;;;4.70;;
20970;SDS011;10644;48.834;10.088;2023-04-16T03:00:55;6.43;;;4.63;;
20970;SDS011;10644;48.834;10.088;2023-04-16T03:03:20;7.20;;;5.23;;
20970;SDS011;10644;48.834;10.088;2023-04-16T03:05:46;5.67;;;3.60;;
20970;SDS011;10644;48.834;10.088;2023-04-16T03:08:12;6.28;;;4.30;;
20970;SDS011;10644;48.834;10.088;2023-04-16T03:10:40;4.70;;;3.93;;
20970;SDS011;10644;48.834;10.088;2023-04-16T03:13:06;5.13;;;4.05;;
20970;SDS011;10644;48.834;10.088;2023-04-16T03:15:31;6.70;;;4.73;;
20970;SDS011;10644;48.834;10.088;2023-04-16T03:17:56;6.70;;;4.47;;
20970;SDS011;10644;48.834;10.088;2023-04-16T03:20:22;8.03;;;4.43;;
20970;SDS011;10644;48.834;10.088;2023-04-16T03:22:47;6.03;;;4.17;;
20970;SDS011;10644;48.834;10.088;2023-04-16T03:25:16;8.63;;;4.50;;
20970;SDS011;10644;48.834;10.088;2023-04-16T03:27:41;5.70;;;4.00;;
20970;SDS011;10644;48.834;10.088;2023-04-16T03:30:10;5.28;;;3.40;;
20970;SDS011;10644;48.834;10.088;2023-04-16T03:32:36;5.22;;;4.30;;
20970;SDS011;10644;48.834;10.088;2023-04-16T03:35:02;4.27;;;3.67;;
20970;SDS011;10644;48.834;10.088;2023-04-16T03:37:28;3.72;;;3.35;;
20970;SDS011;10644;48.834;10.088;2023-04-16T03:39:53;4.03;;;2.93;;
20970;SDS011;10644;48.834;10.088;2023-04-16T03:42:19;3.60;;;3.10;;
20970;SDS011;10644;48.834;10.088;2023-04-16T03:44:44;5.97;;;3.80;;
20970;SDS011;10644;48.834;10.088;2023-04-16T03:47:12;3.90;;;2.90;;
20970;SDS011;10644;48.834;10.088;2023-04-16T03:49:37;4.17;;;3.30;;
20970;SDS011;10644;48.834;10.088;2023-04-16T03:52:02;3.13;;;2.73;;
20970;SDS011;10644;48.834;10.088;2023-04-16T03:54:28;3.73;;;3.40;;
20970;SDS011;10644;48.834;10.088;2023-04-16T03:56:53;3.60;;;2.90;;
20970;SDS011;10644;48.834;10.088;2023-04-16T03:59:18;3.13;;;2.77;;
20970;SDS011;10644;48.834;10.088;2023-04-16T04:01:44;5.13;;;3.30;;
20970;SDS011;10644;48.834;10.088;2023-04-16T04:04:09;3.40;;;2.87;;
20970;SDS011;10644;48.834;10.088;2023-04-16T04:06:35;4.90;;;3.10;;
20970;SDS011;10644;48.834;10.088;2023-04-16T04:09:02;3.93;;;3.13;;
20970;SDS011;10644;48.834;10.088;2023-04-16T04:11:28;3.55;;;3.10;;
20970;SDS011;10644;48.834;10.088;2023-04-16T04:13:53;6.07;;;4.00;;
20970;SDS011;10644;48.834;10.088;2023-04-16T04:16:19;4.50;;;2.80;;
20970;SDS011;10644;48.834;10.088;2023-04-16T04:18:44;4.30;;;3.10;;
20970;SDS011;10644;48.834;10.088;2023-04-16T04:21:09;5.30;;;3.70;;
20970;SDS011;10644;48.834;10.088;2023-04-16T04:23:35;5.13;;;3.77;;
20970;SDS011;10644;48.834;10.088;2023-04-16T04:26:00;3.40;;;2.83;;
20970;SDS011;10644;48.834;10.088;2023-04-16T04:28:31;7.90;;;4.13;;
20970;SDS011;10644;48.834;10.088;2023-04-16T04:30:57;3.70;;;3.10;;
20970;SDS011;10644;48.834;10.088;2023-04-16T04:33:23;6.20;;;3.90;;
20970;SDS011;10644;48.834;10.088;2023-04-16T04:35:49;4.73;;;4.00;;
20970;SDS011;10644;48.834;10.088;2023-04-16T04:38:15;5.50;;;3.80;;
20970;SDS011;10644;48.834;10.088;2023-04-16T04:40:43;5.60;;;4.32;;
20970;SDS011;10644;48.834;10.088;2023-04-16T04:43:09;5.67;;;3.90;;
20970;SDS011;10644;48.834;10.088;2023-04-16T04:45:34;6.07;;;3.90;;
20970;SDS011;10644;48.834;10.088;2023-04-16T04:47:59;5.03;;;3.50;;
20970;SDS011;10644;48.834;10.088;2023-04-16T04:50:25;6.53;;;4.23;;
20970;SDS011;10644;48.834;10.088;2023-04-16T04:52:52;5.85;;;4.70;;
20970;SDS011;10644;48.834;10.088;2023-04-16T04:55:18;5.80;;;4.30;;
20970;SDS011;10644;48.834;10.088;2023-04-16T04:57:43;7.70;;;4.30;;
20970;SDS011;10644;48.834;10.088;2023-04-16T05:00:08;4.40;;;3.93;;
20970;SDS011;10644;48.834;10.088;2023-04-16T05:02:34;4.40;;;3.90;;
20970;SDS011;10644;48.834;10.088;2023-04-16T05:04:59;9.10;;;3.97;;
20970;SDS011;10644;48.834;10.088;2023-04-16T05:07:25;10.30;;;4.90;;
20970;SDS011;10644;48.834;10.088;2023-04-16T05:09:50;11.30;;;4.97;;
20970;SDS011;10644;48.834;10.088;2023-04-16T05:12:15;11.17;;;4.60;;
20970;SDS011;10644;48.834;10.088;2023-04-16T05:14:43;10.10;;;4.72;;
20970;SDS011;10644;48.834;10.088;2023-04-16T05:17:08;80.07;;;24.53;;
20970;SDS011;10644;48.834;10.088;2023-04-16T05:19:35;13.25;;;5.38;;
20970;SDS011;10644;48.834;10.088;2023-04-16T05:22:00;9.23;;;4.23;;
20970;SDS011;10644;48.834;10.088;2023-04-16T05:24:26;10.60;;;4.80;;
20970;SDS011;10644;48.834;10.088;2023-04-16T05:26:52;10.83;;;4.50;;
20970;SDS011;10644;48.834;10.088;2023-04-16T05:29:17;11.97;;;4.97;;
20970;SDS011;10644;48.834;10.088;2023-04-16T05:31:45;12.30;;;5.30;;
20970;SDS011;10644;48.834;10.088;2023-04-16T05:34:10;8.73;;;4.18;;
20970;SDS011;10644;48.834;10.088;2023-04-16T05:36:36;8.40;;;4.40;;
20970;SDS011;10644;48.834;10.088;2023-04-16T05:39:01;8.80;;;4.40;;
20970;SDS011;10644;48.834;10.088;2023-04-16T05:41:27;11.00;;;5.13;;
20970;SDS011;10644;48.834;10.088;2023-04-16T05:43:52;7.40;;;4.00;;
20970;SDS011;10644;48.834;10.088;2023-04-16T05:46:17;10.63;;;4.50;;
20970;SDS011;10644;48.834;10.088;2023-04-16T05:48:43;12.37;;;4.80;;
20970;SDS011;10644;48.834;10.088;2023-04-16T05:51:10;11.77;;;4.70;;
20970;SDS011;10644;48.834;10.088;2023-04-16T05:53:36;17.63;;;5.20;;
20970;SDS011;10644;48.834;10.088;2023-04-16T05:56:01;13.17;;;4.83;;
20970;SDS011;10644;48.834;10.088;2023-04-16T05:58:26;17.20;;;5.40;;
20970;SDS011;10644;48.834;10.088;2023-04-16T06:00:52;10.70;;;4.80;;
20970;SDS011;10644;48.834;10.088;2023-04-16T06:03:17;10.30;;;4.20;;
20970;SDS011;10644;48.834;10.088;2023-04-16T06:05:43;11.73;;;4.93;;
20970;SDS011;10644;48.834;10.088;2023-04-16T06:08:08;13.90;;;5.20;;
20970;SDS011;10644;48.834;10.088;2023-04-16T06:10:34;9.97;;;4.17;;
20970;SDS011;10644;48.834;10.088;2023-04-16T06:12:59;12.13;;;4.70;;
20970;SDS011;10644;48.834;10.088;2023-04-16T06:15:25;12.07;;;5.63;;
20970;SDS011;10644;48.834;10.088;2023-04-16T06:17:50;10.97;;;4.33;;
20970;SDS011;10644;48.834;10.088;2023-04-16T06:20:15;16.93;;;5.33;;
20970;SDS011;10644;48.834;10.088;2023-04-16T06:22:41;13.27;;;4.97;;
20970;SDS011;10644;48.834;10.088;2023-04-16T06:25:06;12.33;;;4.73;;
20970;SDS011;10644;48.834;10.088;2023-04-16T06:27:32;12.50;;;5.40;;
20970;SDS011;10644;48.834;10.088;2023-04-16T06:29:57;11.37;;;4.80;;
20970;SDS011;10644;48.834;10.088;2023-04-16T06:32:23;16.40;;;5.30;;
20970;SDS011;10644;48.834;10.088;2023-04-16T06:34:48;12.53;;;4.80;;
20970;SDS011;10644;48.834;10.088;2023-04-16T06:37:14;11.93;;;4.20;;
20970;SDS011;10644;48.834;10.088;2023-04-16T06:39:40;12.63;;;4.50;;
20970;SDS011;10644;48.834;10.088;2023-04-16T06:42:05;10.03;;;4.37;;
20970;SDS011;10644;48.834;10.088;2023-04-16T06:44:34;9.50;;;4.27;;
20970;SDS011;10644;48.834;10.088;2023-04-16T06:46:59;12.10;;;4.50;;
20970;SDS011;10644;48.834;10.088;2023-04-16T06:49:25;17.23;;;5.00;;
20970;SDS011;10644;48.834;10.088;2023-04-16T06:51:50;20.83;;;6.33;;
20970;SDS011;10644;48.834;10.088;2023-04-16T06:54:15;25.87;;;6.83;;
20970;SDS011;10644;48.834;10.088;2023-04-16T06:56:41;15.20;;;5.83;;
20970;SDS011;10644;48.834;10.088;2023-04-16T06:59:06;11.50;;;4.67;;
20970;SDS011;10644;48.834;10.088;2023-04-16T07:01:32;13.90;;;5.37;;
20970;SDS011;10644;48.834;10.088;2023-04-16T07:03:57;16.10;;;6.30;;
20970;SDS011;10644;48.834;10.088;2023-04-16T07:06:23;15.23;;;5.87;;
20970;SDS011;10644;48.834;10.088;2023-04-16T07:08:48;15.87;;;6.27;;
20970;SDS011;10644;48.834;10.088;2023-04-16T07:11:14;16.77;;;6.07;;
20970;SDS011;10644;48.834;10.088;2023-04-16T07:13:39;17.30;;;7.47;;
20970;SDS011;10644;48.834;10.088;2023-04-16T07:16:07;11.93;;;5.85;;
20970;SDS011;10644;48.834;10.088;2023-04-16T07:18:32;13.60;;;6.73;;
20970;SDS011;10644;48.834;10.088;2023-04-16T07:20:57;17.43;;;6.57;;
20970;SDS011;10644;48.834;10.088;2023-04-16T07:23:23;20.97;;;6.60;;
20970;SDS011;10644;48.834;10.088;2023-04-16T07:25:48;18.07;;;6.93;;
20970;SDS011;10644;48.834;10.088;2023-04-16T07:28:13;20.53;;;7.93;;
20970;SDS011;10644;48.834;10.088;2023-04-16T07:30:41;18.93;;;8.23;;
20970;SDS011;10644;48.834;10.088;2023-04-16T07:33:07;20.23;;;8.43;;
20970;SDS011;10644;48.834;10.088;2023-04-16T07:35:32;15.70;;;7.83;;
20970;SDS011;10644;48.834;10.088;2023-04-16T07:37:58;19.83;;;8.23;;
20970;SDS011;10644;48.834;10.088;2023-04-16T07:40:23;19.30;;;8.13;;
20970;SDS011;10644;48.834;10.088;2023-04-16T07:42:48;19.90;;;9.23;;
20970;SDS011;10644;48.834;10.088;2023-04-16T07:45:14;15.63;;;8.40;;
20970;SDS011;10644;48.834;10.088;2023-04-16T07:47:41;18.03;;;8.50;;
20970;SDS011;10644;48.834;10.088;2023-04-16T07:50:06;12.53;;;7.10;;
20970;SDS011;10644;48.834;10.088;2023-04-16T07:52:32;18.60;;;8.60;;
20970;SDS011;10644;48.834;10.088;2023-04-16T07:54:57;20.90;;;8.33;;
20970;SDS011;10644;48.834;10.088;2023-04-16T07:57:22;17.43;;;8.10;;
20970;SDS011;10644;48.834;10.088;2023-04-16T07:59:48;18.37;;;9.00;;
20970;SDS011;10644;48.834;10.088;2023-04-16T08:02:14;22.10;;;9.00;;
20970;SDS011;10644;48.834;10.088;2023-04-16T08:04:41;21.97;;;9.43;;
20970;SDS011;10644;48.834;10.088;2023-04-16T08:07:07;16.67;;;7.82;;
20970;SDS011;10644;48.834;10.088;2023-04-16T08:09:32;19.17;;;9.40;;
20970;SDS011;10644;48.834;10.088;2023-04-16T08:12:02;22.73;;;9.37;;
20970;SDS011;10644;48.834;10.088;2023-04-16T08:14:27;21.60;;;9.57;;
20970;SDS011;10644;48.834;10.088;2023-04-16T08:16:53;20.80;;;9.53;;
20970;SDS011;10644;48.834;10.088;2023-04-16T08:19:18;21.30;;;9.43;;
20970;SDS011;10644;48.834;10.088;2023-04-16T08:21:44;15.47;;;8.00;;
20970;SDS011;10644;48.834;10.088;2023-04-16T08:24:09;20.50;;;8.07;;
20970;SDS011;10644;48.834;10.088;2023-04-16T08:26:35;21.73;;;8.97;;
20970;SDS011;10644;48.834;10.088;2023-04-16T08:29:00;18.87;;;8.20;;
20970;SDS011;10644;48.834;10.088;2023-04-16T08:31:26;15.87;;;7.33;;
20970;SDS011;10644;48.834;10.088;2023-04-16T08:33:51;16.97;;;7.57;;
20970;SDS011;10644;48.834;10.088;2023-04-16T08:36:17;14.60;;;8.20;;
20970;SDS011;10644;48.834;10.088;2023-04-16T08:38:42;20.47;;;8.57;;
20970;SDS011;10644;48.834;10.088;2023-04-16T08:41:08;19.30;;;9.53;;
20970;SDS011;10644;48.834;10.088;2023-04-16T08:43:37;20.20;;;8.63;;
20970;SDS011;10644;48.834;10.088;2023-04-16T08:46:04;19.17;;;9.83;;
20970;SDS011;10644;48.834;10.088;2023-04-16T08:48:31;23.80;;;9.17;;
20970;SDS011;10644;48.834;10.088;2023-04-16T08:50:58;15.50;;;7.20;;
20970;SDS011;10644;48.834;10.088;2023-04-16T08:53:31;19.87;;;9.17;;
20970;SDS011;10644;48.834;10.088;2023-04-16T08:56:02;19.67;;;8.40;;
20970;SDS011;10644;48.834;10.088;2023-04-16T08:58:29;26.90;;;9.48;;
20970;SDS011;10644;48.834;10.088;2023-04-16T09:00:58;21.30;;;9.33;;
20970;SDS011;10644;48.834;10.088;2023-04-16T09:03:27;17.40;;;8.60;;
20970;SDS011;10644;48.834;10.088;2023-04-16T09:05:53;22.65;;;8.75;;
20970;SDS011;10644;48.834;10.088;2023-04-16T09:08:21;17.30;;;8.77;;
20970;SDS011;10644;48.834;10.088;2023-04-16T09:10:49;19.60;;;8.13;;
20970;SDS011;10644;48.834;10.088;2023-04-16T09:13:19;14.97;;;8.03;;
20970;SDS011;10644;48.834;10.088;2023-04-16T09:15:46;22.63;;;9.37;;
20970;SDS011;10644;48.834;10.088;2023-04-16T09:18:11;21.17;;;9.27;;
20970;SDS011;10644;48.834;10.088;2023-04-16T09:20:37;20.40;;;8.57;;
20970;SDS011;10644;48.834;10.088;2023-04-16T09:23:03;26.10;;;10.00;;
20970;SDS011;10644;48.834;10.088;2023-04-16T09:25:34;14.97;;;7.90;;
20970;SDS011;10644;48.834;10.088;2023-04-16T09:28:01;18.00;;;7.93;;
20970;SDS011;10644;48.834;10.088;2023-04-16T09:30:26;20.27;;;8.30;;
20970;SDS011;10644;48.834;10.088;2023-04-16T09:33:11;25.50;;;10.57;;
20970;SDS011;10644;48.834;10.088;2023-04-16T09:35:50;15.37;;;7.17;;
20970;SDS011;10644;48.834;10.088;2023-04-16T09:38:19;16.67;;;7.53;;
20970;SDS011;10644;48.834;10.088;2023-04-16T09:40:45;16.93;;;7.83;;
20970;SDS011;10644;48.834;10.088;2023-04-16T09:45:50;19.97;;;7.80;;
20970;SDS011;10644;48.834;10.088;2023-04-16T09:48:31;19.57;;;7.53;;
20970;SDS011;10644;48.834;10.088;2023-04-16T09:50:58;15.50;;;6.68;;
20970;SDS011;10644;48.834;10.088;2023-04-16T09:53:28;19.43;;;6.83;;
20970;SDS011;10644;48.834;10.088;2023-04-16T09:55:58;17.20;;;6.37;;
20970;SDS011;10644;48.834;10.088;2023-04-16T09:58:27;19.95;;;8.27;;
20970;SDS011;10644;48.834;10.088;2023-04-16T10:01:02;15.48;;;6.57;;
20970;SDS011;10644;48.834;10.088;2023-04-16T10:03:31;18.90;;;7.80;;
20970;SDS011;10644;48.834;10.088;2023-04-16T10:06:19;17.07;;;7.57;;
20970;SDS011;10644;48.834;10.088;2023-04-16T10:11:14;17.33;;;8.00;;
20970;SDS011;10644;48.834;10.088;2023-04-16T10:13:40;20.90;;;7.78;;
20970;SDS011;10644;48.834;10.088;2023-04-16T10:16:05;18.73;;;7.40;;
20970;SDS011;10644;48.834;10.088;2023-04-16T10:18:32;24.88;;;8.73;;
20970;SDS011;10644;48.834;10.088;2023-04-16T10:21:00;26.67;;;9.20;;
20970;SDS011;10644;48.834;10.088;2023-04-16T10:23:26;24.77;;;7.83;;
20970;SDS011;10644;48.834;10.088;2023-04-16T10:25:52;19.27;;;7.93;;
20970;SDS011;10644;48.834;10.088;2023-04-16T10:28:18;13.97;;;6.73;;
20970;SDS011;10644;48.834;10.088;2023-04-16T10:30:46;25.83;;;8.60;;
20970;SDS011;10644;48.834;10.088;2023-04-16T10:33:20;20.50;;;7.53;;
20970;SDS011;10644;48.834;10.088;2023-04-16T10:35:47;23.43;;;7.50;;
20970;SDS011;10644;48.834;10.088;2023-04-16T10:38:23;22.13;;;7.93;;
20970;SDS011;10644;48.834;10.088;2023-04-16T10:40:49;20.73;;;7.50;;
20970;SDS011;10644;48.834;10.088;2023-04-16T10:43:23;24.50;;;6.57;;
20970;SDS011;10644;48.834;10.088;2023-04-16T10:45:49;26.50;;;7.93;;
20970;SDS011;10644;48.834;10.088;2023-04-16T10:48:17;23.93;;;7.13;;
20970;SDS011;10644;48.834;10.088;2023-04-16T10:50:42;25.77;;;7.53;;
20970;SDS011;10644;48.834;10.088;2023-04-16T10:53:21;29.83;;;8.10;;
20970;SDS011;10644;48.834;10.088;2023-04-16T10:58:29;21.40;;;7.67;;
20970;SDS011;10644;48.834;10.088;2023-04-16T11:00:59;24.50;;;7.63;;
20970;SDS011;10644;48.834;10.088;2023-04-16T11:03:28;27.73;;;10.30;;
20970;SDS011;10644;48.834;10.088;2023-04-16T11:06:13;24.83;;;9.50;;
20970;SDS011;10644;48.834;10.088;2023-04-16T11:08:45;25.33;;;7.53;;
20970;SDS011;10644;48.834;10.088;2023-04-16T11:11:11;21.10;;;6.80;;
20970;SDS011;10644;48.834;10.088;2023-04-16T11:13:37;25.33;;;7.13;;
20970;SDS011;10644;48.834;10.088;2023-04-16T11:16:04;24.87;;;7.00;;
20970;SDS011;10644;48.834;10.088;2023-04-16T11:18:30;33.30;;;7.27;;
20970;SDS011;10644;48.834;10.088;2023-04-16T11:20:55;20.20;;;6.77;;
20970;SDS011;10644;48.834;10.088;2023-04-16T11:23:21;18.93;;;6.27;;
20970;SDS011;10644;48.834;10.088;2023-04-16T11:25:46;22.63;;;6.90;;
20970;SDS011;10644;48.834;10.088;2023-04-16T11:28:11;26.33;;;8.20;;
20970;SDS011;10644;48.834;10.088;2023-04-16T11:30:39;25.87;;;7.43;;
20970;SDS011;10644;48.834;10.088;2023-04-16T11:33:09;19.33;;;6.03;;
20970;SDS011;10644;48.834;10.088;2023-04-16T11:35:36;20.10;;;6.47;;
20970;SDS011;10644;48.834;10.088;2023-04-16T11:38:03;19.77;;;4.97;;
20970;SDS011;10644;48.834;10.088;2023-04-16T11:40:31;24.90;;;6.27;;
20970;SDS011;10644;48.834;10.088;2023-04-16T11:43:15;21.50;;;5.80;;
20970;SDS011;10644;48.834;10.088;2023-04-16T11:48:45;26.55;;;7.72;;
20970;SDS011;10644;48.834;10.088;2023-04-16T11:51:12;14.95;;;5.57;;
20970;SDS011;10644;48.834;10.088;2023-04-16T11:53:44;29.47;;;7.37;;
20970;SDS011;10644;48.834;10.088;2023-04-16T11:56:29;20.50;;;7.28;;
20970;SDS011;10644;48.834;10.088;2023-04-16T11:59:13;27.20;;;7.73;;
20970;SDS011;10644;48.834;10.088;2023-04-16T12:01:40;17.47;;;6.73;;
20970;SDS011;10644;48.834;10.088;2023-04-16T12:04:09;15.43;;;6.73;;
20970;SDS011;10644;48.834;10.088;2023-04-16T12:06:37;16.80;;;6.47;;
20970;SDS011;10644;48.834;10.088;2023-04-16T12:09:24;20.83;;;7.50;;
20970;SDS011;10644;48.834;10.088;2023-04-16T12:11:51;15.88;;;6.72;;
20970;SDS011;10644;48.834;10.088;2023-04-16T12:14:17;17.83;;;6.97;;
20970;SDS011;10644;48.834;10.088;2023-04-16T12:16:45;15.70;;;7.70;;
20970;SDS011;10644;48.834;10.088;2023-04-16T12:19:11;20.93;;;7.60;;
20970;SDS011;10644;48.834;10.088;2023-04-16T12:21:46;22.60;;;6.40;;
20970;SDS011;10644;48.834;10.088;2023-04-16T12:24:17;17.07;;;5.63;;
20970;SDS011;10644;48.834;10.088;2023-04-16T12:26:51;17.17;;;5.93;;
20970;SDS011;10644;48.834;10.088;2023-04-16T12:29:23;25.83;;;7.53;;
20970;SDS011;10644;48.834;10.088;2023-04-16T12:32:21;18.80;;;9.80;;
20970;SDS011;10644;48.834;10.088;2023-04-16T12:34:50;18.13;;;6.17;;
20970;SDS011;10644;48.834;10.088;2023-04-16T12:37:15;14.40;;;5.60;;
20970;SDS011;10644;48.834;10.088;2023-04-16T12:39:41;23.53;;;6.60;;
20970;SDS011;10644;48.834;10.088;2023-04-16T12:42:08;18.93;;;5.87;;
20970;SDS011;10644;48.834;10.088;2023-04-16T12:44:35;19.63;;;7.30;;
20970;SDS011;10644;48.834;10.088;2023-04-16T12:47:00;15.03;;;6.30;;
20970;SDS011;10644;48.834;10.088;2023-04-16T12:49:26;24.23;;;6.97;;
20970;SDS011;10644;48.834;10.088;2023-04-16T12:51:51;18.27;;;6.90;;
20970;SDS011;10644;48.834;10.088;2023-04-16T12:54:16;24.53;;;8.87;;
20970;SDS011;10644;48.834;10.088;2023-04-16T12:56:42;16.27;;;6.93;;
20970;SDS011;10644;48.834;10.088;2023-04-16T12:59:07;17.57;;;6.97;;
20970;SDS011;10644;48.834;10.088;2023-04-16T13:01:34;10.00;;;5.77;;
20970;SDS011;10644;48.834;10.088;2023-04-16T13:04:01;17.60;;;6.70;;
20970;SDS011;10644;48.834;10.088;2023-04-16T13:06:29;12.40;;;5.80;;
20970;SDS011;10644;48.834;10.088;2023-04-16T13:08:56;18.37;;;7.00;;
20970;SDS011;10644;48.834;10.088;2023-04-16T13:11:21;11.47;;;6.53;;
20970;SDS011;10644;48.834;10.088;2023-04-16T13:13:47;13.20;;;6.43;;
20970;SDS011;10644;48.834;10.088;2023-04-16T13:16:12;19.63;;;8.23;;
20970;SDS011;10644;48.834;10.088;2023-04-16T13:18:37;22.73;;;9.43;;
20970;SDS011;10644;48.834;10.088;2023-04-16T13:21:04;23.77;;;7.37;;
20970;SDS011;10644;48.834;10.088;2023-04-16T13:23:31;16.50;;;7.07;;
20970;SDS011;10644;48.834;10.088;2023-04-16T13:25:58;10.87;;;6.63;;
20970;SDS011;10644;48.834;10.088;2023-04-16T13:28:23;15.50;;;6.90;;
20970;SDS011;10644;48.834;10.088;2023-04-16T13:30:49;22.00;;;7.90;;
20970;SDS011;10644;48.834;10.088;2023-04-16T13:33:15;13.93;;;6.50;;
20970;SDS011;10644;48.834;10.088;2023-04-16T13:35:41;15.10;;;6.70;;
20970;SDS011;10644;48.834;10.088;2023-04-16T13:38:06;13.60;;;6.90;;
20970;SDS011;10644;48.834;10.088;2023-04-16T13:40:31;16.63;;;8.27;;
20970;SDS011;10644;48.834;10.088;2023-04-16T13:42:57;14.30;;;7.27;;
20970;SDS011;10644;48.834;10.088;2023-04-16T13:45:22;13.87;;;7.60;;
20970;SDS011;10644;48.834;10.088;2023-04-16T13:47:48;14.13;;;6.97;;
20970;SDS011;10644;48.834;10.088;2023-04-16T13:50:13;19.10;;;7.60;;
20970;SDS011;10644;48.834;10.088;2023-04-16T13:52:39;10.60;;;6.30;;
20970;SDS011;10644;48.834;10.088;2023-04-16T13:55:05;14.40;;;6.60;;
20970;SDS011;10644;48.834;10.088;2023-04-16T13:57:30;13.87;;;7.13;;
20970;SDS011;10644;48.834;10.088;2023-04-16T13:59:56;15.07;;;8.10;;
20970;SDS011;10644;48.834;10.088;2023-04-16T14:02:21;18.17;;;6.80;;
20970;SDS011;10644;48.834;10.088;2023-04-16T14:04:47;11.27;;;6.80;;
20970;SDS011;10644;48.834;10.088;2023-04-16T14:07:13;13.87;;;7.20;;
20970;SDS011;10644;48.834;10.088;2023-04-16T14:09:38;16.10;;;8.13;;
20970;SDS011;10644;48.834;10.088;2023-04-16T14:12:04;15.27;;;7.53;;
20970;SDS011;10644;48.834;10.088;2023-04-16T14:14:30;14.37;;;7.20;;
20970;SDS011;10644;48.834;10.088;2023-04-16T14:16:56;16.23;;;7.70;;
20970;SDS011;10644;48.834;10.088;2023-04-16T14:19:23;15.03;;;7.20;;
20970;SDS011;10644;48.834;10.088;2023-04-16T14:21:50;20.53;;;8.20;;
20970;SDS011;10644;48.834;10.088;2023-04-16T14:24:16;18.87;;;9.17;;
20970;SDS011;10644;48.834;10.088;2023-04-16T14:26:44;15.48;;;7.60;;
20970;SDS011;10644;48.834;10.088;2023-04-16T14:29:10;15.87;;;7.80;;
20970;SDS011;10644;48.834;10.088;2023-04-16T14:31:36;12.93;;;6.13;;
20970;SDS011;10644;48.834;10.088;2023-04-16T14:34:04;13.97;;;6.90;;